createdAt,value
2022-11-18T00:00:02.652Z,2.56
2022-11-18T00:05:03.195Z,2.42
2022-11-18T00:10:02.919Z,2.42
2022-11-18T00:15:02.690Z,2.36
2022-11-18T00:20:03.438Z,2.36
2022-11-18T00:25:03.078Z,2.32
2022-11-18T00:30:02.749Z,2.3
2022-11-18T00:35:02.697Z,2.29
2022-11-18T00:40:03.143Z,2.29
2022-11-18T00:45:02.754Z,2.28
2022-11-18T00:50:03.513Z,2.25
2022-11-18T00:55:04.393Z,2.25
2022-11-18T01:00:02.727Z,2.24
2022-11-18T01:05:03.407Z,2.22
2022-11-18T01:10:03.134Z,2.21
2022-11-18T01:15:02.803Z,2.17
2022-11-18T01:20:03.436Z,2.15
2022-11-18T01:25:03.492Z,2.12
2022-11-18T01:30:13.764Z,2.09
2022-11-18T01:35:03.394Z,2.08
2022-11-18T01:40:02.958Z,2.07
2022-11-18T01:45:02.755Z,2.03
2022-11-18T01:50:03.056Z,2.02
2022-11-18T01:55:04.837Z,2.01
2022-11-18T02:00:02.914Z,2
2022-11-18T02:05:03.149Z,2
2022-11-18T02:10:02.939Z,1.99
2022-11-18T02:15:03.021Z,1.94
2022-11-18T02:20:02.435Z,1.93
2022-11-18T02:25:02.695Z,1.88
2022-11-18T02:30:02.907Z,1.86
2022-11-18T02:35:02.501Z,1.84
2022-11-18T02:40:03.186Z,1.83
2022-11-18T02:45:02.737Z,1.84
2022-11-18T02:50:02.616Z,1.8
2022-11-18T02:55:04.741Z,1.79
2022-11-18T03:00:02.878Z,1.76
2022-11-18T03:05:02.633Z,1.74
2022-11-18T03:10:03.362Z,1.69
2022-11-18T03:15:02.975Z,1.68
2022-11-18T03:20:02.376Z,1.67
2022-11-18T03:25:03.407Z,1.61
2022-11-18T03:30:03.132Z,1.61
2022-11-18T03:35:03.229Z,1.58
2022-11-18T03:40:02.767Z,1.52
2022-11-18T03:45:03.228Z,1.51
2022-11-18T03:50:03.274Z,1.53
2022-11-18T03:55:04.049Z,1.44
2022-11-18T04:00:02.644Z,1.43
2022-11-18T04:05:03.347Z,1.41
2022-11-18T04:10:02.571Z,1.39
2022-11-18T04:15:02.645Z,1.35
2022-11-18T04:20:03.046Z,1.34
2022-11-18T04:25:02.637Z,1.29
2022-11-18T04:30:03.476Z,1.28
2022-11-18T04:35:03.291Z,1.25
2022-11-18T04:40:02.383Z,1.25
2022-11-18T04:45:03.416Z,1.21
2022-11-18T04:50:03.112Z,1.19
2022-11-18T04:55:04.402Z,1.18
2022-11-18T05:00:02.780Z,1.19
2022-11-18T05:05:02.870Z,1.18
2022-11-18T05:10:02.334Z,1.09
2022-11-18T05:15:03.397Z,1.06
2022-11-18T05:20:03.481Z,1.02
2022-11-18T05:25:02.814Z,0.75
2022-11-18T05:30:02.582Z,0.68
2022-11-18T05:35:03.223Z,0.66
2022-11-18T05:40:02.687Z,0.55
2022-11-18T05:45:02.786Z,0.46
2022-11-18T05:50:03.179Z,0.41
2022-11-18T05:55:03.704Z,0.34
2022-11-18T06:00:02.565Z,0.26
2022-11-18T06:05:03.360Z,0.24
2022-11-18T06:10:06.607Z,0.15
2022-11-18T06:15:03.207Z,0.15
2022-11-18T06:20:02.269Z,0.12
2022-11-18T06:25:03.426Z,0.15
2022-11-18T06:30:03.223Z,0.08
2022-11-18T06:35:03.436Z,0.05
2022-11-18T06:40:02.832Z,0
2022-11-18T06:45:02.457Z,-0.03
2022-11-18T06:50:03.379Z,-0.05
2022-11-18T06:55:03.977Z,-0.12
2022-11-18T07:00:02.860Z,-0.15
2022-11-18T07:05:02.618Z,-0.22
2022-11-18T07:10:03.384Z,-0.22
2022-11-18T07:15:03.192Z,-0.25
2022-11-18T07:20:03.239Z,-0.26
2022-11-18T07:25:02.962Z,-0.36
2022-11-18T07:30:02.773Z,-0.42
2022-11-18T07:35:03.418Z,-0.42
2022-11-18T07:40:03.037Z,-0.48
2022-11-18T07:45:02.796Z,-0.47
2022-11-18T07:50:03.457Z,-0.52
2022-11-18T07:55:04.547Z,-0.52
2022-11-18T08:00:03.069Z,-0.55
2022-11-18T08:05:02.520Z,-0.51
2022-11-18T08:10:02.539Z,-0.58
2022-11-18T08:15:03.036Z,-0.61
2022-11-18T08:20:02.498Z,-0.55
2022-11-18T08:25:03.467Z,-0.66
2022-11-18T08:30:03.475Z,-0.67
2022-11-18T08:35:11.660Z,-0.73
2022-11-18T08:40:03.365Z,-0.78
2022-11-18T08:45:03.240Z,-0.81
2022-11-18T08:50:02.777Z,-0.79
2022-11-18T08:55:04.775Z,-0.87
2022-11-18T09:00:03.209Z,-0.83
2022-11-18T09:05:02.878Z,-0.8
2022-11-18T09:10:02.281Z,-0.83
2022-11-18T09:15:16.255Z,-0.79
2022-11-18T09:20:02.923Z,-0.8
2022-11-18T09:25:02.602Z,-0.77
2022-11-18T09:30:03.311Z,-0.81
2022-11-18T09:35:02.711Z,-0.82
2022-11-18T09:40:02.707Z,-0.88
2022-11-18T09:45:14.602Z,-0.91
2022-11-18T09:50:47.634Z,-0.91
2022-11-18T09:55:03.851Z,-0.96
2022-11-18T10:00:03.262Z,-1.07
2022-11-18T10:05:02.938Z,-1.12
2022-11-18T10:10:02.713Z,-1.11
2022-11-18T10:15:03.491Z,-1.15
2022-11-18T10:20:03.057Z,-1.2
2022-11-18T10:25:02.994Z,-1.18
2022-11-18T10:30:02.571Z,-1.3
2022-11-18T10:35:03.271Z,-1.42
2022-11-18T10:40:02.723Z,-1.49
2022-11-18T10:45:02.578Z,-1.45
2022-11-18T10:50:03.220Z,-1.54
2022-11-18T10:55:04.296Z,-1.6
2022-11-18T11:00:02.892Z,-1.48
2022-11-18T11:05:03.437Z,-1.4
2022-11-18T11:10:03.457Z,-1.4
2022-11-18T11:15:03.164Z,-1.22
2022-11-18T11:20:02.813Z,-1.16
2022-11-18T11:25:02.810Z,-1.15
2022-11-18T11:30:03.269Z,-1.08
2022-11-18T11:35:03.081Z,-1.24
2022-11-18T11:40:02.791Z,-1.26
2022-11-18T11:45:03.533Z,-1.3
2022-11-18T11:50:03.078Z,-1.32
2022-11-18T11:55:03.873Z,-1.32
2022-11-18T12:00:03.096Z,-1.39
2022-11-18T12:05:02.854Z,-1.33
2022-11-18T12:10:02.915Z,-1.47
2022-11-18T12:15:02.340Z,-1.5
2022-11-18T12:20:03.412Z,-1.57
2022-11-18T12:25:03.173Z,-1.49
2022-11-18T12:30:02.861Z,-1.42
2022-11-18T12:35:02.921Z,-1.35
2022-11-18T12:40:02.562Z,-1.28
2022-11-18T12:45:02.338Z,-1.34
2022-11-18T12:50:03.266Z,-1.41
2022-11-18T12:55:04.323Z,-1.46
2022-11-18T13:00:02.419Z,-1.38
2022-11-18T13:05:02.791Z,-1.44
2022-11-18T13:10:02.342Z,-1.44
2022-11-18T13:15:03.005Z,-1.48
2022-11-18T13:20:03.052Z,-1.44
2022-11-18T13:25:02.964Z,-1.35
2022-11-18T13:30:02.754Z,-1.45
2022-11-18T13:35:03.378Z,-1.46
2022-11-18T13:40:03.291Z,-1.41
2022-11-18T13:45:02.798Z,-1.42
2022-11-18T13:50:02.833Z,-1.44
2022-11-18T13:55:04.417Z,-1.43
2022-11-18T14:00:03.306Z,-1.42
2022-11-18T14:05:03.280Z,-1.43
2022-11-18T14:10:02.698Z,-1.4
2022-11-18T14:15:03.125Z,-1.41
2022-11-18T14:20:03.378Z,-1.38
2022-11-18T14:25:02.580Z,-1.41
2022-11-18T14:30:02.706Z,-1.41
2022-11-18T14:35:03.043Z,-1.41
2022-11-18T14:40:02.812Z,-1.47
2022-11-18T14:45:02.739Z,-1.47
2022-11-18T14:50:02.535Z,-1.48
2022-11-18T14:55:04.231Z,-1.47
2022-11-18T15:00:03.136Z,-1.46
2022-11-18T15:05:02.985Z,-1.47
2022-11-18T15:10:03.128Z,-1.47
2022-11-18T15:15:03.028Z,-1.48
2022-11-18T15:20:02.410Z,-1.46
2022-11-18T15:25:02.697Z,-1.47
2022-11-18T15:30:03.508Z,-1.47
2022-11-18T15:35:03.243Z,-1.48
2022-11-18T15:40:03.125Z,-1.49
2022-11-18T15:45:03.014Z,-1.52
2022-11-18T15:50:02.456Z,-1.54
2022-11-18T15:55:08.448Z,-1.52
2022-11-18T16:00:03.525Z,-1.55
2022-11-18T16:05:02.902Z,-1.57
2022-11-18T16:10:03.387Z,-1.58
2022-11-18T16:15:03.085Z,-1.58
2022-11-18T16:20:03.244Z,-1.63
2022-11-18T16:25:02.805Z,-1.64
2022-11-18T16:30:02.699Z,-1.66
2022-11-18T16:35:02.311Z,-1.67
2022-11-18T16:40:02.241Z,-1.7
2022-11-18T16:45:03.304Z,-1.71
2022-11-18T16:50:03.087Z,-1.72
2022-11-18T16:55:04.223Z,-1.73
2022-11-18T17:00:03.267Z,-1.79
2022-11-18T17:05:03.450Z,-1.78
2022-11-18T17:10:03.121Z,-1.8
2022-11-18T17:15:02.864Z,-1.82
2022-11-18T17:20:02.698Z,-1.84
2022-11-18T17:25:05.922Z,-1.88
2022-11-18T17:30:02.660Z,-1.91
2022-11-18T17:35:03.468Z,-1.9
2022-11-18T17:40:02.724Z,-1.92
2022-11-18T17:45:03.026Z,-1.94
2022-11-18T17:50:02.451Z,-1.96
2022-11-18T17:55:04.010Z,-1.99
2022-11-18T18:00:03.526Z,-1.99
2022-11-18T18:05:03.249Z,-2.01
2022-11-18T18:10:02.545Z,-2.06
2022-11-18T18:15:03.078Z,-2.07
2022-11-18T18:20:02.735Z,-2.14
2022-11-18T18:25:02.980Z,-2.21
2022-11-18T18:30:02.730Z,-2.28
2022-11-18T18:35:03.325Z,-2.32
2022-11-18T18:40:03.206Z,-2.33
2022-11-18T18:45:02.596Z,-2.43
2022-11-18T18:50:03.262Z,-2.37
2022-11-18T18:55:03.982Z,-2.56
2022-11-18T19:00:02.739Z,-2.62
2022-11-18T19:05:03.179Z,-2.76
2022-11-18T19:10:03.362Z,-3
2022-11-18T19:15:02.369Z,-3.15
2022-11-18T19:20:03.368Z,-3.12
2022-11-18T19:25:03.246Z,-3.32
2022-11-18T19:30:02.692Z,-3.6
2022-11-18T19:35:03.228Z,-3.86
2022-11-18T19:40:10.925Z,-4.4
2022-11-18T19:45:02.688Z,-4.82
2022-11-18T19:50:03.056Z,-4.57
2022-11-18T19:55:04.089Z,-4.53
2022-11-18T20:00:02.845Z,-4.55
2022-11-18T20:05:02.567Z,-4.69
2022-11-18T20:10:02.996Z,-4.69
2022-11-18T20:15:02.564Z,-4.9
2022-11-18T20:20:03.052Z,-5.27
2022-11-18T20:25:03.370Z,-5.03
2022-11-18T20:30:03.080Z,-4.91
2022-11-18T20:35:03.486Z,-5.01
2022-11-18T20:40:05.371Z,-5.24
2022-11-18T20:45:02.781Z,-5.29
2022-11-18T20:50:02.752Z,-5.49
2022-11-18T20:55:06.646Z,-5.46
2022-11-18T21:00:02.864Z,-5.31
2022-11-18T21:05:02.498Z,-5.23
2022-11-18T21:10:02.966Z,-5.28
2022-11-18T21:15:02.605Z,-5.28
2022-11-18T21:20:02.665Z,-5.44
2022-11-18T21:25:03.374Z,-5.34
2022-11-18T21:30:03.010Z,-5.29
2022-11-18T21:35:02.409Z,-5.2
2022-11-18T21:40:03.363Z,-5.39
2022-11-18T21:45:03.005Z,-5.52
2022-11-18T21:50:02.719Z,-5.42
2022-11-18T21:55:04.756Z,-5.49
2022-11-18T22:00:02.966Z,-5.51
2022-11-18T22:05:02.725Z,-5.34
2022-11-18T22:10:03.419Z,-5.46
2022-11-18T22:15:03.121Z,-5.53
2022-11-18T22:20:02.725Z,-5.74
2022-11-18T22:25:02.751Z,-5.74
2022-11-18T22:30:03.515Z,-5.9
2022-11-18T22:35:03.017Z,-6.07
2022-11-18T22:40:02.650Z,-6.35
2022-11-18T22:45:03.414Z,-6.37
2022-11-18T22:50:03.363Z,-6.14
2022-11-18T22:55:04.437Z,-5.88
2022-11-18T23:00:03.032Z,-5.95
2022-11-18T23:05:02.526Z,-5.95
2022-11-18T23:10:03.317Z,-5.94
2022-11-18T23:15:02.811Z,-6.07
2022-11-18T23:20:02.599Z,-6.13
2022-11-18T23:25:03.151Z,-6.06
2022-11-18T23:30:03.088Z,-6.05
2022-11-18T23:35:02.859Z,-6.06
2022-11-18T23:40:02.597Z,-6.14
2022-11-18T23:45:05.964Z,-6.02
2022-11-18T23:50:02.243Z,-5.65
2022-11-18T23:55:04.432Z,-5.44
